sensor_id;sensor_type;location;lat;lon;timestamp;pressure;altitude;pressure_sealevel;temperature;humidity
5298;BME280;14738;42.668;23.250;2022-09-09T00:02:02;48410.16;;;-141.90;100.00
5298;BME280;14738;42.668;23.250;2022-09-09T00:04:35;48408.16;;;-141.90;100.00
5298;BME280;14738;42.668;23.250;2022-09-09T00:07:21;48382.34;;;-141.90;100.00
5298;BME280;14738;42.668;23.250;2022-09-09T00:12:53;48374.41;;;-141.90;100.00
5298;BME280;14738;42.668;23.250;2022-09-09T00:15:26;48394.28;;;-141.90;100.00
5298;BME280;14738;42.668;23.250;2022-09-09T00:20:52;48406.19;;;-141.90;100.00
5298;BME280;14738;42.668;23.250;2022-09-09T00:23:35;48388.31;;;-141.90;100.00
5298;BME280;14738;42.668;23.250;2022-09-09T00:26:30;48368.47;;;-141.90;100.00
5298;BME280;14738;42.668;23.250;2022-09-09T00:31:37;48402.22;;;-141.90;100.00
5298;BME280;14738;42.668;23.250;2022-09-09T00:34:16;48404.19;;;-141.90;100.00
5298;BME280;14738;42.668;23.250;2022-09-09T00:36:43;48400.22;;;-141.90;100.00
5298;BME280;14738;42.668;23.250;2022-09-09T00:39:23;48410.16;;;-141.90;100.00
5298;BME280;14738;42.668;23.250;2022-09-09T00:42:10;48402.22;;;-141.90;100.00
5298;BME280;14738;42.668;23.250;2022-09-09T00:45:10;48433.97;;;-141.90;100.00
5298;BME280;14738;42.668;23.250;2022-09-09T00:53:02;48378.38;;;-141.90;100.00
5298;BME280;14738;42.668;23.250;2022-09-09T00:58:24;48398.25;;;-141.90;100.00
5298;BME280;14738;42.668;23.250;2022-09-09T01:01:03;48410.16;;;-141.90;100.00
5298;BME280;14738;42.668;23.250;2022-09-09T01:03:37;48352.59;;;-141.90;100.00
5298;BME280;14738;42.668;23.250;2022-09-09T01:06:32;48412.13;;;-141.90;100.00
5298;BME280;14738;42.668;23.250;2022-09-09T01:12:14;48360.53;;;-141.90;100.00
5298;BME280;14738;42.668;23.250;2022-09-09T01:15:08;48406.19;;;-141.90;100.00
5298;BME280;14738;42.668;23.250;2022-09-09T01:18:02;48390.31;;;-141.90;100.00
5298;BME280;14738;42.668;23.250;2022-09-09T01:23:24;48394.28;;;-141.90;100.00
5298;BME280;14738;42.668;23.250;2022-09-09T01:28:50;48392.28;;;-141.90;100.00
5298;BME280;14738;42.668;23.250;2022-09-09T01:31:38;48418.09;;;-141.90;100.00
5298;BME280;14738;42.668;23.250;2022-09-09T01:34:15;48416.09;;;-141.90;100.00
5298;BME280;14738;42.668;23.250;2022-09-09T01:39:09;48428.03;;;-141.90;100.00
5298;BME280;14738;42.668;23.250;2022-09-09T01:41:35;48386.34;;;-141.90;100.00
5298;BME280;14738;42.668;23.250;2022-09-09T01:44:02;48418.09;;;-141.90;100.00
5298;BME280;14738;42.668;23.250;2022-09-09T01:46:27;48406.19;;;-141.90;100.00
5298;BME280;14738;42.668;23.250;2022-09-09T01:48:55;48414.13;;;-141.90;100.00
5298;BME280;14738;42.668;23.250;2022-09-09T01:51:21;48410.16;;;-141.90;100.00
5298;BME280;14738;42.668;23.250;2022-09-09T01:53:47;48414.13;;;-141.90;100.00
5298;BME280;14738;42.668;23.250;2022-09-09T02:02:06;48418.09;;;-141.90;100.00
5298;BME280;14738;42.668;23.250;2022-09-09T02:04:45;48418.09;;;-141.90;100.00
5298;BME280;14738;42.668;23.250;2022-09-09T02:07:19;48408.16;;;-141.90;100.00
5298;BME280;14738;42.668;23.250;2022-09-09T02:09:54;48400.22;;;-141.90;100.00
5298;BME280;14738;42.668;23.250;2022-09-09T02:12:25;48414.13;;;-141.90;100.00
5298;BME280;14738;42.668;23.250;2022-09-09T02:14:57;48390.31;;;-141.90;100.00
5298;BME280;14738;42.668;23.250;2022-09-09T02:17:28;48408.16;;;-141.90;100.00
5298;BME280;14738;42.668;23.250;2022-09-09T02:20:04;48406.19;;;-141.90;100.00
5298;BME280;14738;42.668;23.250;2022-09-09T02:22:31;48398.25;;;-141.90;100.00
5298;BME280;14738;42.668;23.250;2022-09-09T02:25:00;48414.13;;;-141.90;100.00
5298;BME280;14738;42.668;23.250;2022-09-09T02:27:25;48402.22;;;-141.90;100.00
5298;BME280;14738;42.668;23.250;2022-09-09T02:29:52;48384.34;;;-141.90;100.00
5298;BME280;14738;42.668;23.250;2022-09-09T02:32:22;48378.38;;;-141.90;100.00
5298;BME280;14738;42.668;23.250;2022-09-09T02:34:51;48410.16;;;-141.90;100.00
5298;BME280;14738;42.668;23.250;2022-09-09T02:37:21;48392.28;;;-141.90;100.00
5298;BME280;14738;42.668;23.250;2022-09-09T02:39:49;48394.28;;;-141.90;100.00
5298;BME280;14738;42.668;23.250;2022-09-09T02:42:14;48400.22;;;-141.90;100.00
5298;BME280;14738;42.668;23.250;2022-09-09T02:44:41;48394.28;;;-141.90;100.00
5298;BME280;14738;42.668;23.250;2022-09-09T02:47:16;48402.22;;;-141.90;100.00
5298;BME280;14738;42.668;23.250;2022-09-09T02:52:18;48382.34;;;-141.90;100.00
5298;BME280;14738;42.668;23.250;2022-09-09T02:54:48;48406.19;;;-141.90;100.00
5298;BME280;14738;42.668;23.250;2022-09-09T02:57:22;48398.25;;;-141.90;100.00
5298;BME280;14738;42.668;23.250;2022-09-09T02:59:49;48390.31;;;-141.90;100.00
5298;BME280;14738;42.668;23.250;2022-09-09T03:02:15;48396.25;;;-141.90;100.00
5298;BME280;14738;42.668;23.250;2022-09-09T03:04:41;48400.22;;;-141.90;100.00
5298;BME280;14738;42.668;23.250;2022-09-09T03:07:10;48396.25;;;-141.90;100.00
5298;BME280;14738;42.668;23.250;2022-09-09T03:09:35;48410.16;;;-141.90;100.00
5298;BME280;14738;42.668;23.250;2022-09-09T03:12:01;48402.22;;;-141.90;100.00
5298;BME280;14738;42.668;23.250;2022-09-09T03:14:29;48374.41;;;-141.90;100.00
5298;BME280;14738;42.668;23.250;2022-09-09T03:16:56;48414.13;;;-141.90;100.00
5298;BME280;14738;42.668;23.250;2022-09-09T03:19:23;48398.25;;;-141.90;100.00
5298;BME280;14738;42.668;23.250;2022-09-09T03:21:49;48386.34;;;-141.90;100.00
5298;BME280;14738;42.668;23.250;2022-09-09T03:24:15;48394.28;;;-141.90;100.00
5298;BME280;14738;42.668;23.250;2022-09-09T03:26:41;48360.53;;;-141.90;100.00
5298;BME280;14738;42.668;23.250;2022-09-09T03:29:10;48390.31;;;-141.90;100.00
5298;BME280;14738;42.668;23.250;2022-09-09T03:31:38;48408.16;;;-141.90;100.00
5298;BME280;14738;42.668;23.250;2022-09-09T03:34:03;48410.16;;;-141.90;100.00
5298;BME280;14738;42.668;23.250;2022-09-09T03:36:29;48396.25;;;-141.90;100.00
5298;BME280;14738;42.668;23.250;2022-09-09T03:38:55;48398.25;;;-141.90;100.00
5298;BME280;14738;42.668;23.250;2022-09-09T03:41:23;48396.25;;;-141.90;100.00
5298;BME280;14738;42.668;23.250;2022-09-09T03:43:53;48418.09;;;-141.90;100.00
5298;BME280;14738;42.668;23.250;2022-09-09T03:46:20;48400.22;;;-141.90;100.00
5298;BME280;14738;42.668;23.250;2022-09-09T03:48:46;48404.19;;;-141.90;100.00
5298;BME280;14738;42.668;23.250;2022-09-09T03:51:11;48394.28;;;-141.90;100.00
5298;BME280;14738;42.668;23.250;2022-09-09T03:53:37;48394.28;;;-141.90;100.00
5298;BME280;14738;42.668;23.250;2022-09-09T03:56:04;48384.34;;;-141.90;100.00
5298;BME280;14738;42.668;23.250;2022-09-09T03:58:35;48410.16;;;-141.90;100.00
5298;BME280;14738;42.668;23.250;2022-09-09T04:01:05;48396.25;;;-141.90;100.00
5298;BME280;14738;42.668;23.250;2022-09-09T04:03:31;48402.22;;;-141.90;100.00
5298;BME280;14738;42.668;23.250;2022-09-09T04:05:58;48406.19;;;-141.90;100.00
5298;BME280;14738;42.668;23.250;2022-09-09T04:08:25;48398.25;;;-141.90;100.00
5298;BME280;14738;42.668;23.250;2022-09-09T04:10:51;48404.19;;;-141.90;100.00
5298;BME280;14738;42.668;23.250;2022-09-09T04:13:18;48386.34;;;-141.90;100.00
5298;BME280;14738;42.668;23.250;2022-09-09T04:15:56;48390.31;;;-141.90;100.00
5298;BME280;14738;42.668;23.250;2022-09-09T04:18:22;48414.13;;;-141.90;100.00
5298;BME280;14738;42.668;23.250;2022-09-09T04:20:51;48390.31;;;-141.90;100.00
5298;BME280;14738;42.668;23.250;2022-09-09T04:23:18;48414.13;;;-141.90;100.00
5298;BME280;14738;42.668;23.250;2022-09-09T04:25:46;48406.19;;;-141.90;100.00
5298;BME280;14738;42.668;23.250;2022-09-09T04:28:13;48326.78;;;-141.90;100.00
5298;BME280;14738;42.668;23.250;2022-09-09T04:30:39;48368.47;;;-141.90;100.00
5298;BME280;14738;42.668;23.250;2022-09-09T04:33:06;48412.13;;;-141.90;100.00
5298;BME280;14738;42.668;23.250;2022-09-09T04:35:35;48437.94;;;-141.90;100.00
5298;BME280;14738;42.668;23.250;2022-09-09T04:38:00;48410.16;;;-141.90;100.00
5298;BME280;14738;42.668;23.250;2022-09-09T04:40:28;48414.13;;;-141.90;100.00
5298;BME280;14738;42.668;23.250;2022-09-09T04:42:54;48435.97;;;-141.90;100.00
5298;BME280;14738;42.668;23.250;2022-09-09T04:45:21;48426.03;;;-141.90;100.00
5298;BME280;14738;42.668;23.250;2022-09-09T04:47:47;48430.00;;;-141.90;100.00
5298;BME280;14738;42.668;23.250;2022-09-09T04:50:12;48418.09;;;-141.90;100.00
5298;BME280;14738;42.668;23.250;2022-09-09T04:52:38;48426.03;;;-141.90;100.00
5298;BME280;14738;42.668;23.250;2022-09-09T04:55:04;48414.13;;;-141.90;100.00
5298;BME280;14738;42.668;23.250;2022-09-09T04:57:29;48435.97;;;-141.90;100.00
5298;BME280;14738;42.668;23.250;2022-09-09T04:59:58;48422.06;;;-141.90;100.00
5298;BME280;14738;42.668;23.250;2022-09-09T05:02:23;48441.91;;;-141.90;100.00
5298;BME280;14738;42.668;23.250;2022-09-09T05:04:49;48422.06;;;-141.90;100.00
5298;BME280;14738;42.668;23.250;2022-09-09T05:07:15;48426.03;;;-141.90;100.00
5298;BME280;14738;42.668;23.250;2022-09-09T05:09:40;48424.06;;;-141.90;100.00
5298;BME280;14738;42.668;23.250;2022-09-09T05:12:06;48451.84;;;-141.90;100.00
5298;BME280;14738;42.668;23.250;2022-09-09T05:14:31;48455.81;;;-141.90;100.00
5298;BME280;14738;42.668;23.250;2022-09-09T05:16:57;48453.81;;;-141.90;100.00
5298;BME280;14738;42.668;23.250;2022-09-09T05:19:23;48451.84;;;-141.90;100.00
5298;BME280;14738;42.668;23.250;2022-09-09T05:21:48;48445.88;;;-141.90;100.00
5298;BME280;14738;42.668;23.250;2022-09-09T05:24:16;48467.72;;;-141.90;100.00
5298;BME280;14738;42.668;23.250;2022-09-09T05:26:42;48469.72;;;-141.90;100.00
5298;BME280;14738;42.668;23.250;2022-09-09T05:29:08;48451.84;;;-141.90;100.00
5298;BME280;14738;42.668;23.250;2022-09-09T05:31:34;48497.50;;;-141.90;100.00
5298;BME280;14738;42.668;23.250;2022-09-09T05:33:59;48517.34;;;-141.90;100.00
5298;BME280;14738;42.668;23.250;2022-09-09T05:36:25;48553.09;;;-141.90;100.00
5298;BME280;14738;42.668;23.250;2022-09-09T05:38:50;48594.78;;;-141.90;42.24
5298;BME280;14738;42.668;23.250;2022-09-09T05:41:17;48660.31;;;-141.90;40.04
5298;BME280;14738;42.668;23.250;2022-09-09T05:43:43;48676.19;;;-141.90;37.67
5298;BME280;14738;42.668;23.250;2022-09-09T05:46:13;48692.06;;;-141.90;37.13
5298;BME280;14738;42.668;23.250;2022-09-09T05:48:41;48719.88;;;-141.90;35.86
5298;BME280;14738;42.668;23.250;2022-09-09T05:51:14;48777.44;;;-141.90;34.84
5298;BME280;14738;42.668;23.250;2022-09-09T05:53:44;48743.69;;;-141.90;33.53
5298;BME280;14738;42.668;23.250;2022-09-09T05:56:15;48751.63;;;-141.90;33.90
5298;BME280;14738;42.668;23.250;2022-09-09T05:58:41;48819.13;;;-141.90;32.94
5298;BME280;14738;42.668;23.250;2022-09-09T06:01:12;48844.94;;;-141.90;32.62
5298;BME280;14738;42.668;23.250;2022-09-09T06:03:40;48835.03;;;-141.90;31.55
5298;BME280;14738;42.668;23.250;2022-09-09T06:06:08;48842.97;;;-141.90;31.97
5298;BME280;14738;42.668;23.250;2022-09-09T06:08:39;48842.97;;;-141.90;31.25
5298;BME280;14738;42.668;23.250;2022-09-09T06:11:20;48785.38;;;-141.90;31.67
5298;BME280;14738;42.668;23.250;2022-09-09T06:13:46;48795.31;;;-141.90;32.02
5298;BME280;14738;42.668;23.250;2022-09-09T06:16:18;48805.25;;;-141.90;31.19
5298;BME280;14738;42.668;23.250;2022-09-09T06:18:44;48703.97;;;-141.90;32.65
5298;BME280;14738;42.668;23.250;2022-09-09T06:23:41;48789.34;;;-141.90;31.03
5298;BME280;14738;42.668;23.250;2022-09-09T06:26:13;48795.31;;;-141.90;30.75
5298;BME280;14738;42.668;23.250;2022-09-09T06:28:39;48866.78;;;-141.90;29.71
5298;BME280;14738;42.668;23.250;2022-09-09T06:31:10;48842.97;;;-141.90;30.95
5298;BME280;14738;42.668;23.250;2022-09-09T06:33:41;48848.91;;;-141.90;30.27
5298;BME280;14738;42.668;23.250;2022-09-09T06:36:11;48719.88;;;-141.90;32.87
5298;BME280;14738;42.668;23.250;2022-09-09T06:38:38;48769.50;;;-141.90;31.46
5298;BME280;14738;42.668;23.250;2022-09-09T06:41:04;48787.38;;;-141.90;31.00
5298;BME280;14738;42.668;23.250;2022-09-09T06:43:31;48713.91;;;-141.90;33.25
5298;BME280;14738;42.668;23.250;2022-09-09T06:46:01;48723.84;;;-141.90;33.49
5298;BME280;14738;42.668;23.250;2022-09-09T06:48:27;48668.25;;;-141.90;34.22
5298;BME280;14738;42.668;23.250;2022-09-09T06:53:33;48698.03;;;-141.90;34.32
5298;BME280;14738;42.668;23.250;2022-09-09T06:56:17;48719.88;;;-141.90;33.90
5298;BME280;14738;42.668;23.250;2022-09-09T06:58:43;48709.94;;;-141.90;33.90
5298;BME280;14738;42.668;23.250;2022-09-09T07:01:13;48711.91;;;-141.90;33.20
5298;BME280;14738;42.668;23.250;2022-09-09T07:03:40;48703.97;;;-141.90;34.21
5298;BME280;14738;42.668;23.250;2022-09-09T07:06:13;48670.22;;;-141.90;34.43
5298;BME280;14738;42.668;23.250;2022-09-09T07:08:40;48668.25;;;-141.90;35.02
5298;BME280;14738;42.668;23.250;2022-09-09T07:11:07;48642.44;;;-141.90;35.38
5298;BME280;14738;42.668;23.250;2022-09-09T07:13:34;48682.13;;;-141.90;35.21
5298;BME280;14738;42.668;23.250;2022-09-09T07:16:06;48692.06;;;-141.90;35.03
5298;BME280;14738;42.668;23.250;2022-09-09T07:18:32;48662.28;;;-141.90;35.13
5298;BME280;14738;42.668;23.250;2022-09-09T07:20:58;48702.00;;;-141.90;36.60
5298;BME280;14738;42.668;23.250;2022-09-09T07:23:24;48658.31;;;-141.90;36.27
5298;BME280;14738;42.668;23.250;2022-09-09T07:25:50;48696.03;;;-141.90;35.31
5298;BME280;14738;42.668;23.250;2022-09-09T07:28:17;48672.22;;;-141.90;34.96
5298;BME280;14738;42.668;23.250;2022-09-09T07:30:43;48640.44;;;-141.90;36.52
5298;BME280;14738;42.668;23.250;2022-09-09T07:33:09;48717.88;;;-141.90;35.77
5298;BME280;14738;42.668;23.250;2022-09-09T07:35:35;48656.34;;;-141.90;36.23
5298;BME280;14738;42.668;23.250;2022-09-09T07:38:02;48692.06;;;-141.90;35.30
5298;BME280;14738;42.668;23.250;2022-09-09T07:40:30;48606.69;;;-141.90;36.56
5298;BME280;14738;42.668;23.250;2022-09-09T07:42:56;48618.59;;;-141.90;36.07
5298;BME280;14738;42.668;23.250;2022-09-09T07:45:21;48640.44;;;-141.90;34.99
5298;BME280;14738;42.668;23.250;2022-09-09T07:47:47;48636.47;;;-141.90;36.11
5298;BME280;14738;42.668;23.250;2022-09-09T07:50:14;48666.25;;;-141.90;35.92
5298;BME280;14738;42.668;23.250;2022-09-09T07:52:40;48676.19;;;-141.90;35.47
5298;BME280;14738;42.668;23.250;2022-09-09T07:55:06;48705.97;;;-141.90;35.48
5298;BME280;14738;42.668;23.250;2022-09-09T07:57:31;48703.97;;;-141.90;34.80
5298;BME280;14738;42.668;23.250;2022-09-09T07:59:57;48711.91;;;-141.90;33.42
5298;BME280;14738;42.668;23.250;2022-09-09T08:02:24;48703.97;;;-141.90;34.15
5298;BME280;14738;42.668;23.250;2022-09-09T08:04:50;48723.84;;;-141.90;34.55
5298;BME280;14738;42.668;23.250;2022-09-09T08:07:17;48684.13;;;-141.90;34.86
5298;BME280;14738;42.668;23.250;2022-09-09T08:09:43;48727.81;;;-141.90;34.58
5298;BME280;14738;42.668;23.250;2022-09-09T08:12:09;48688.09;;;-141.90;34.82
5298;BME280;14738;42.668;23.250;2022-09-09T08:14:34;48698.03;;;-141.90;34.55
5298;BME280;14738;42.668;23.250;2022-09-09T08:17:00;48664.28;;;-141.90;34.35
5298;BME280;14738;42.668;23.250;2022-09-09T08:19:26;48745.69;;;-141.90;33.76
5298;BME280;14738;42.668;23.250;2022-09-09T08:21:54;48715.91;;;-141.90;34.23
5298;BME280;14738;42.668;23.250;2022-09-09T08:24:20;48668.25;;;-141.90;34.42
5298;BME280;14738;42.668;23.250;2022-09-09T08:26:47;48682.13;;;-141.90;34.55
5298;BME280;14738;42.668;23.250;2022-09-09T08:29:17;48739.72;;;-141.90;35.11
5298;BME280;14738;42.668;23.250;2022-09-09T08:31:53;48721.84;;;-141.90;34.76
5298;BME280;14738;42.668;23.250;2022-09-09T08:34:20;48707.94;;;-141.90;34.52
5298;BME280;14738;42.668;23.250;2022-09-09T08:36:47;48690.09;;;-141.90;34.01
5298;BME280;14738;42.668;23.250;2022-09-09T08:39:15;48696.03;;;-141.90;34.60
5298;BME280;14738;42.668;23.250;2022-09-09T08:55:20;48684.13;;;-141.90;34.86
5298;BME280;14738;42.668;23.250;2022-09-09T08:57:50;48743.69;;;-141.90;34.75
5298;BME280;14738;42.668;23.250;2022-09-09T09:00:17;48696.03;;;-141.90;34.99
5298;BME280;14738;42.668;23.250;2022-09-09T09:06:01;48707.94;;;-141.90;33.23
5298;BME280;14738;42.668;23.250;2022-09-09T09:08:43;48723.84;;;-141.90;32.65
5298;BME280;14738;42.668;23.250;2022-09-09T09:11:11;48741.69;;;-141.90;33.48
5298;BME280;14738;42.668;23.250;2022-09-09T09:13:48;48668.25;;;-141.90;33.28
5298;BME280;14738;42.668;23.250;2022-09-09T09:16:34;48741.69;;;-141.90;32.57
5298;BME280;14738;42.668;23.250;2022-09-09T09:19:01;48702.00;;;-141.90;33.45
5298;BME280;14738;42.668;23.250;2022-09-09T09:21:48;48723.84;;;-141.90;32.95
5298;BME280;14738;42.668;23.250;2022-09-09T09:27:16;48779.44;;;-141.90;32.33
5298;BME280;14738;42.668;23.250;2022-09-09T09:29:44;48773.47;;;-141.90;32.39
5298;BME280;14738;42.668;23.250;2022-09-09T09:32:14;48743.69;;;-141.90;31.87
5298;BME280;14738;42.668;23.250;2022-09-09T09:34:41;48791.34;;;-141.90;31.60
5298;BME280;14738;42.668;23.250;2022-09-09T09:37:17;48751.63;;;-141.90;32.26
5298;BME280;14738;42.668;23.250;2022-09-09T09:39:44;48763.53;;;-141.90;31.87
5298;BME280;14738;42.668;23.250;2022-09-09T09:42:12;48743.69;;;-141.90;32.57
5298;BME280;14738;42.668;23.250;2022-09-09T09:44:41;48733.75;;;-141.90;33.07
5298;BME280;14738;42.668;23.250;2022-09-09T09:47:16;48725.81;;;-141.90;33.15
5298;BME280;14738;42.668;23.250;2022-09-09T09:50:00;48729.78;;;-141.90;33.11
5298;BME280;14738;42.668;23.250;2022-09-09T09:52:31;48783.41;;;-141.90;32.84
5298;BME280;14738;42.668;23.250;2022-09-09T09:54:58;48735.75;;;-141.90;32.74
5298;BME280;14738;42.668;23.250;2022-09-09T09:57:29;48703.97;;;-141.90;33.06
5298;BME280;14738;42.668;23.250;2022-09-09T10:00:16;48727.81;;;-141.90;32.91
5298;BME280;14738;42.668;23.250;2022-09-09T10:02:46;48725.81;;;-141.90;32.44
5298;BME280;14738;42.668;23.250;2022-09-09T10:05:23;48709.94;;;-141.90;32.84
5298;BME280;14738;42.668;23.250;2022-09-09T10:08:11;48739.72;;;-141.90;34.04
5298;BME280;14738;42.668;23.250;2022-09-09T10:11:05;48698.03;;;-141.90;34.23
5298;BME280;14738;42.668;23.250;2022-09-09T10:14:20;48707.94;;;-141.90;33.79
5298;BME280;14738;42.668;23.250;2022-09-09T10:17:09;48662.28;;;-141.90;33.98
5298;BME280;14738;42.668;23.250;2022-09-09T10:19:45;48721.84;;;-141.90;34.16
5298;BME280;14738;42.668;23.250;2022-09-09T10:22:32;48727.81;;;-141.90;33.66
5298;BME280;14738;42.668;23.250;2022-09-09T10:25:20;48713.91;;;-141.90;33.49
5298;BME280;14738;42.668;23.250;2022-09-09T10:30:59;48729.78;;;-141.90;33.57
5298;BME280;14738;42.668;23.250;2022-09-09T10:33:33;48678.16;;;-141.90;33.64
5298;BME280;14738;42.668;23.250;2022-09-09T10:36:10;48676.19;;;-141.90;34.15
5298;BME280;14738;42.668;23.250;2022-09-09T10:38:42;48672.22;;;-141.90;34.15
5298;BME280;14738;42.668;23.250;2022-09-09T10:41:20;48700.00;;;-141.90;34.49
5298;BME280;14738;42.668;23.250;2022-09-09T10:52:37;48771.47;;;-141.90;34.12
5298;BME280;14738;42.668;23.250;2022-09-09T10:55:24;48713.91;;;-141.90;35.17
5298;BME280;14738;42.668;23.250;2022-09-09T10:57:52;48723.84;;;-141.90;36.10
5298;BME280;14738;42.668;23.250;2022-09-09T11:00:40;48700.00;;;-141.90;35.63
5298;BME280;14738;42.668;23.250;2022-09-09T11:03:15;48723.84;;;-141.90;36.16
5298;BME280;14738;42.668;23.250;2022-09-09T11:05:45;48703.97;;;-141.90;36.66
5298;BME280;14738;42.668;23.250;2022-09-09T11:08:18;48731.78;;;-141.90;36.76
5298;BME280;14738;42.668;23.250;2022-09-09T11:18:42;48707.94;;;-141.90;35.56
5298;BME280;14738;42.668;23.250;2022-09-09T11:21:22;48745.69;;;-141.90;36.44
5298;BME280;14738;42.668;23.250;2022-09-09T11:23:54;48759.56;;;-141.90;35.72
5298;BME280;14738;42.668;23.250;2022-09-09T11:26:38;48739.72;;;-141.90;35.91
5298;BME280;14738;42.668;23.250;2022-09-09T11:32:15;48755.59;;;-141.90;36.64
5298;BME280;14738;42.668;23.250;2022-09-09T11:40:24;48743.69;;;-141.90;37.51
5298;BME280;14738;42.668;23.250;2022-09-09T11:43:04;48743.69;;;-141.90;37.97
5298;BME280;14738;42.668;23.250;2022-09-09T11:45:34;48767.50;;;-141.90;38.43
5298;BME280;14738;42.668;23.250;2022-09-09T11:48:04;48745.69;;;-141.90;37.71
5298;BME280;14738;42.668;23.250;2022-09-09T11:50:35;48755.59;;;-141.90;37.41
5298;BME280;14738;42.668;23.250;2022-09-09T11:53:20;48767.50;;;-141.90;37.60
5298;BME280;14738;42.668;23.250;2022-09-09T11:55:59;48779.44;;;-141.90;37.35
5298;BME280;14738;42.668;23.250;2022-09-09T11:58:24;48789.34;;;-141.90;36.48
5298;BME280;14738;42.668;23.250;2022-09-09T12:00:53;48771.47;;;-141.90;36.43
5298;BME280;14738;42.668;23.250;2022-09-09T12:03:48;48829.06;;;-141.90;35.64
5298;BME280;14738;42.668;23.250;2022-09-09T12:06:45;48840.97;;;-141.90;35.36
5298;BME280;14738;42.668;23.250;2022-09-09T12:09:42;48783.41;;;-141.90;34.05
5298;BME280;14738;42.668;23.250;2022-09-09T12:14:55;48787.38;;;-141.90;34.42
5298;BME280;14738;42.668;23.250;2022-09-09T12:17:26;48705.97;;;-141.90;34.20
5298;BME280;14738;42.668;23.250;2022-09-09T12:20:16;48787.38;;;-141.90;34.16
5298;BME280;14738;42.668;23.250;2022-09-09T12:31:56;48743.69;;;-141.90;33.83
5298;BME280;14738;42.668;23.250;2022-09-09T12:39:59;48751.63;;;-141.90;35.03
5298;BME280;14738;42.668;23.250;2022-09-09T12:42:26;48721.84;;;-141.90;34.71
5298;BME280;14738;42.668;23.250;2022-09-09T12:44:57;48761.56;;;-141.90;34.66
5298;BME280;14738;42.668;23.250;2022-09-09T12:47:43;48745.69;;;-141.90;34.29
5298;BME280;14738;42.668;23.250;2022-09-09T12:50:22;48721.84;;;-141.90;34.93
5298;BME280;14738;42.668;23.250;2022-09-09T12:52:52;48727.81;;;-141.90;35.38
5298;BME280;14738;42.668;23.250;2022-09-09T12:55:25;48761.56;;;-141.90;34.55
5298;BME280;14738;42.668;23.250;2022-09-09T12:57:53;48727.81;;;-141.90;35.37
5298;BME280;14738;42.668;23.250;2022-09-09T13:00:25;48723.84;;;-141.90;35.12
5298;BME280;14738;42.668;23.250;2022-09-09T13:03:00;48737.72;;;-141.90;35.38
5298;BME280;14738;42.668;23.250;2022-09-09T13:05:33;48747.66;;;-141.90;36.69
5298;BME280;14738;42.668;23.250;2022-09-09T13:08:08;48771.47;;;-141.90;36.47
5298;BME280;14738;42.668;23.250;2022-09-09T13:10:49;48737.72;;;-141.90;36.44
5298;BME280;14738;42.668;23.250;2022-09-09T13:13:25;48747.66;;;-141.90;36.21
5298;BME280;14738;42.668;23.250;2022-09-09T13:15:54;48745.69;;;-141.90;36.11
5298;BME280;14738;42.668;23.250;2022-09-09T13:18:27;48703.97;;;-141.90;36.86
5298;BME280;14738;42.668;23.250;2022-09-09T13:20:54;48723.84;;;-141.90;37.48
5298;BME280;14738;42.668;23.250;2022-09-09T13:23:28;48763.53;;;-141.90;36.03
5298;BME280;14738;42.668;23.250;2022-09-09T13:26:01;48715.91;;;-141.90;35.13
5298;BME280;14738;42.668;23.250;2022-09-09T13:28:29;48741.69;;;-141.90;36.13
5298;BME280;14738;42.668;23.250;2022-09-09T13:31:00;48735.75;;;-141.90;35.75
5298;BME280;14738;42.668;23.250;2022-09-09T13:36:09;48707.94;;;-141.90;35.96
5298;BME280;14738;42.668;23.250;2022-09-09T13:38:39;48684.13;;;-141.90;35.61
5298;BME280;14738;42.668;23.250;2022-09-09T13:41:08;48692.06;;;-141.90;35.07
5298;BME280;14738;42.668;23.250;2022-09-09T13:43:44;48702.00;;;-141.90;35.09
5298;BME280;14738;42.668;23.250;2022-09-09T13:51:38;48717.88;;;-141.90;35.29
5298;BME280;14738;42.668;23.250;2022-09-09T13:54:05;48696.03;;;-141.90;35.03
5298;BME280;14738;42.668;23.250;2022-09-09T13:56:34;48698.03;;;-141.90;35.03
5298;BME280;14738;42.668;23.250;2022-09-09T13:59:00;48749.66;;;-141.90;35.23
5298;BME280;14738;42.668;23.250;2022-09-09T14:01:27;48711.91;;;-141.90;34.55
5298;BME280;14738;42.668;23.250;2022-09-09T14:03:53;48749.66;;;-141.90;35.11
5298;BME280;14738;42.668;23.250;2022-09-09T14:06:18;48723.84;;;-141.90;34.91
5298;BME280;14738;42.668;23.250;2022-09-09T14:08:44;48725.81;;;-141.90;34.48
5298;BME280;14738;42.668;23.250;2022-09-09T14:11:12;48727.81;;;-141.90;35.16
5298;BME280;14738;42.668;23.250;2022-09-09T14:13:38;48713.91;;;-141.90;35.71
5298;BME280;14738;42.668;23.250;2022-09-09T14:16:03;48690.09;;;-141.90;34.43
5298;BME280;14738;42.668;23.250;2022-09-09T14:18:29;48678.16;;;-141.90;34.86
5298;BME280;14738;42.668;23.250;2022-09-09T14:20:54;48703.97;;;-141.90;34.90
5298;BME280;14738;42.668;23.250;2022-09-09T14:23:20;48688.09;;;-141.90;35.41
5298;BME280;14738;42.668;23.250;2022-09-09T14:25:47;48684.13;;;-141.90;35.66
5298;BME280;14738;42.668;23.250;2022-09-09T14:28:14;48713.91;;;-141.90;35.67
5298;BME280;14738;42.668;23.250;2022-09-09T14:30:41;48709.94;;;-141.90;35.64
5298;BME280;14738;42.668;23.250;2022-09-09T14:33:09;48717.88;;;-141.90;35.91
5298;BME280;14738;42.668;23.250;2022-09-09T14:35:36;48674.19;;;-141.90;35.30
5298;BME280;14738;42.668;23.250;2022-09-09T14:38:03;48707.94;;;-141.90;34.88
5298;BME280;14738;42.668;23.250;2022-09-09T14:40:29;48696.03;;;-141.90;35.26
5298;BME280;14738;42.668;23.250;2022-09-09T14:42:55;48688.09;;;-141.90;35.52
5298;BME280;14738;42.668;23.250;2022-09-09T14:45:22;48688.09;;;-141.90;35.50
5298;BME280;14738;42.668;23.250;2022-09-09T14:47:50;48698.03;;;-141.90;35.77
5298;BME280;14738;42.668;23.250;2022-09-09T14:50:20;48696.03;;;-141.90;36.72